Time;durP1;ratioP1;P1;durP2;ratioP2;P2;SDS_P1;SDS_P2;PMS_P1;PMS_P2;Temp;Humidity;BMP_temperature;BMP_pressure;BME280_temperature;BME280_humidity;BME280_pressure;Samples;Min_cycle;Max_cycle;Signal;HPM_P1;HPM_P2
2023/02/02 02:06:21;;;;;;;11.80;5.80;;;;;;;3.78;67.43;99453.59;102819;1288;604441;-55
2023/02/02 02:08:55;;;;;;;8.60;3.30;;;;;;;4.31;66.10;99453.39;104332;1266;117327;-55
2023/02/02 02:11:24;;;;;;;12.70;6.40;;;;;;;4.32;65.88;99452.25;104703;1267;59332;-55
2023/02/02 02:16:59;;;;;;;6.80;1.70;;;;;;;4.20;65.93;99459.69;104589;1264;62558;-55
2023/02/02 02:26:57;;;;;;;12.10;6.10;;;;;;;3.84;66.35;99456.85;104569;1264;59376;-56
2023/02/02 02:29:46;;;;;;;4.80;2.10;;;;;;;3.69;66.44;99451.83;104482;1272;63623;-55
2023/02/02 02:32:18;;;;;;;13.70;6.20;;;;;;;3.61;66.65;99450.13;104089;1273;62579;-54
2023/02/02 02:34:55;;;;;;;6.60;2.10;;;;;;;3.55;66.74;99454.97;104448;1263;65099;-54
2023/02/02 02:37:50;;;;;;;7.50;2.60;;;;;;;3.53;66.70;99452.82;104621;1263;59769;-56
2023/02/02 02:40:43;;;;;;;5.50;2.20;;;;;;;3.57;66.75;99456.77;104722;1264;59676;-55
2023/02/02 02:43:17;;;;;;;6.60;2.70;;;;;;;3.60;66.77;99456.55;104658;1265;65113;-55
2023/02/02 02:45:46;;;;;;;4.90;2.00;;;;;;;3.62;66.83;99456.82;104533;1264;62619;-55
2023/02/02 02:48:15;;;;;;;7.60;2.50;;;;;;;3.59;66.93;99459.78;104559;1269;64019;-57
2023/02/02 02:50:47;;;;;;;6.70;2.70;;;;;;;3.54;66.97;99459.70;104587;1267;59681;-55
2023/02/02 02:53:21;;;;;;;9.60;3.40;;;;;;;3.49;67.08;99459.34;104750;1267;59721;-55
2023/02/02 02:55:57;;;;;;;11.70;6.80;;;;;;;3.43;67.18;99466.84;104565;1264;64370;-55
2023/02/02 02:58:41;;;;;;;10.00;3.50;;;;;;;3.39;67.14;99469.23;104482;1264;62824;-55
2023/02/02 03:01:38;;;;;;;7.60;2.90;;;;;;;3.34;67.41;99468.31;104545;1265;64910;-55
2023/02/02 03:04:13;;;;;;;11.40;3.70;;;;;;;3.29;67.50;99467.59;104900;1264;59826;-55
2023/02/02 03:06:43;;;;;;;8.10;3.10;;;;;;;3.26;67.59;99469.54;104810;1268;60960;-54
2023/02/02 03:09:14;;;;;;;13.90;7.00;;;;;;;3.23;67.66;99471.10;104577;1265;65380;-55
2023/02/02 03:11:43;;;;;;;9.60;3.80;;;;;;;3.26;67.64;99469.88;104561;1269;62575;-55
2023/02/02 03:14:11;;;;;;;6.00;2.50;;;;;;;3.33;67.49;99472.17;104274;1270;65219;-54
2023/02/02 03:16:39;;;;;;;12.50;6.20;;;;;;;3.40;67.39;99471.20;104500;1268;59787;-54
2023/02/02 03:19:08;;;;;;;7.60;2.80;;;;;;;3.47;67.43;99467.48;104707;1264;59715;-55
2023/02/02 03:21:37;;;;;;;11.10;3.70;;;;;;;3.50;67.40;99467.96;104630;1268;65174;-54
2023/02/02 03:24:06;;;;;;;9.80;3.20;;;;;;;3.47;67.34;99464.70;104422;1264;62447;-54
2023/02/02 03:26:34;;;;;;;9.50;3.20;;;;;;;3.44;67.42;99462.47;104622;1267;65228;-55
2023/02/02 03:29:03;;;;;;;11.10;4.70;;;;;;;3.41;67.48;99470.12;104616;1264;59781;-55
2023/02/02 03:31:31;;;;;;;13.20;7.30;;;;;;;3.35;67.42;99473.94;104651;1268;59638;-55
2023/02/02 03:34:00;;;;;;;10.90;3.30;;;;;;;3.29;67.56;99469.88;104719;1267;65198;-56
2023/02/02 03:36:29;;;;;;;6.30;3.10;;;;;;;3.22;67.75;99465.98;104577;1269;62554;-57
2023/02/02 03:38:57;;;;;;;9.30;4.40;;;;;;;3.21;67.84;99471.91;104536;1268;64732;-55
2023/02/02 03:41:25;;;;;;;13.10;7.10;;;;;;;3.26;67.69;99478.52;104807;1264;59723;-56
2023/02/02 03:43:54;;;;;;;8.00;2.50;;;;;;;3.30;67.72;99481.20;104441;1263;59699;-55
2023/02/02 03:46:22;;;;;;;7.90;2.90;;;;;;;3.31;67.70;99478.89;104441;1269;64374;-56
2023/02/02 03:48:51;;;;;;;7.90;3.20;;;;;;;3.30;67.84;99477.73;105848;1257;62383;-55
2023/02/02 03:51:19;;;;;;;7.50;3.30;;;;;;;3.29;68.00;99480.40;105431;1257;64046;-54
2023/02/02 03:53:47;;;;;;;8.10;3.80;;;;;;;3.26;67.84;99483.38;105000;1257;59701;-56
2023/02/02 03:56:16;;;;;;;7.20;3.40;;;;;;;3.22;68.02;99482.80;105037;1257;59683;-56
2023/02/02 03:58:46;;;;;;;9.10;3.20;;;;;;;3.18;68.18;99480.07;106117;1256;65540;-57
2023/02/02 04:14:35;;;;;;;8.00;4.10;;;;;;;3.58;67.50;99488.19;103492;1284;604173;-55
2023/02/02 04:17:02;;;;;;;13.40;7.00;;;;;;;4.02;66.40;99492.98;104662;1263;107865;-55
2023/02/02 04:19:29;;;;;;;12.40;6.90;;;;;;;3.97;66.33;99492.45;104769;1267;59359;-54
2023/02/02 04:21:56;;;;;;;13.30;6.30;;;;;;;3.95;66.13;99492.83;104840;1267;64378;-55
2023/02/02 04:24:23;;;;;;;15.30;6.80;;;;;;;3.91;66.10;99492.71;104826;1264;62919;-55
2023/02/02 04:26:50;;;;;;;10.40;6.10;;;;;;;3.88;66.19;99487.81;104966;1264;65284;-55
2023/02/02 04:29:17;;;;;;;18.20;7.10;;;;;;;3.85;66.30;99489.77;105014;1263;59275;-55
2023/02/02 04:31:44;;;;;;;7.00;2.50;;;;;;;3.79;66.43;99494.69;104880;1264;59381;-55
2023/02/02 04:34:11;;;;;;;7.10;2.50;;;;;;;3.73;66.57;99491.92;105279;1267;64721;-56
2023/02/02 04:36:38;;;;;;;7.50;3.30;;;;;;;3.69;66.57;99490.48;104711;1270;62644;-55
2023/02/02 04:39:05;;;;;;;12.60;6.70;;;;;;;3.64;66.71;99495.47;104959;1264;64730;-56
2023/02/02 04:41:32;;;;;;;8.00;3.80;;;;;;;3.58;66.68;99495.37;104987;1264;59775;-56
2023/02/02 04:43:59;;;;;;;6.20;3.00;;;;;;;3.50;66.72;99494.17;104966;1263;59764;-56
2023/02/02 04:46:28;;;;;;;14.80;6.70;;;;;;;3.41;66.86;99500.31;104762;1265;65606;-57
2023/02/02 04:48:55;;;;;;;6.90;2.40;;;;;;;3.39;66.91;99500.59;105131;1264;62633;-56
2023/02/02 04:51:22;;;;;;;5.90;2.70;;;;;;;3.44;66.92;99502.67;104829;1267;73579;-55
2023/02/02 04:53:49;;;;;;;11.00;6.00;;;;;;;3.48;66.86;99502.27;104849;1264;59634;-55
2023/02/02 04:56:17;;;;;;;7.60;2.90;;;;;;;3.51;66.89;99500.87;105091;1264;59650;-55
2023/02/02 04:58:44;;;;;;;8.70;2.60;;;;;;;3.51;67.02;99504.27;104803;1267;65286;-51
2023/02/02 05:01:16;;;;;;;13.40;6.50;;;;;;;3.49;67.03;99507.75;105867;1264;62671;-51
2023/02/02 05:03:43;;;;;;;6.40;2.30;;;;;;;3.46;67.12;99512.63;104756;1263;64738;-52
2023/02/02 05:06:10;;;;;;;5.80;2.80;;;;;;;3.42;67.11;99511.65;105153;1264;59620;-54
2023/02/02 05:08:37;;;;;;;6.80;3.10;;;;;;;3.38;67.18;99513.30;104859;1264;59669;-52
2023/02/02 05:11:17;;;;;;;10.40;6.00;;;;;;;3.35;67.25;99514.05;104914;1263;65259;-55
2023/02/02 05:13:49;;;;;;;7.70;2.50;;;;;;;3.32;67.25;99515.44;104660;1267;62560;-55
2023/02/02 05:16:16;;;;;;;7.10;3.60;;;;;;;3.35;67.14;99515.73;104727;1264;65155;-56
2023/02/02 05:18:54;;;;;;;10.80;2.70;;;;;;;3.40;67.02;99519.57;104796;1264;60631;-57
2023/02/02 05:21:21;;;;;;;10.60;6.10;;;;;;;3.46;66.99;99524.95;104752;1268;59670;-56
2023/02/02 05:23:48;;;;;;;8.40;2.50;;;;;;;3.52;66.97;99524.20;104649;1267;65272;-55
2023/02/02 05:26:17;;;;;;;10.90;6.60;;;;;;;3.55;66.85;99525.55;104740;1267;62583;-55
2023/02/02 05:28:44;;;;;;;6.40;2.70;;;;;;;3.55;66.83;99528.67;104912;1269;64238;-55
2023/02/02 05:31:11;;;;;;;12.00;6.60;;;;;;;3.52;66.80;99529.72;104632;1263;61777;-56
2023/02/02 05:33:38;;;;;;;8.20;2.60;;;;;;;3.48;66.73;99533.98;104659;1264;59641;-56
2023/02/02 05:36:06;;;;;;;6.70;2.60;;;;;;;3.42;66.63;99536.66;104736;1265;65685;-56
2023/02/02 05:38:32;;;;;;;5.40;2.30;;;;;;;3.33;66.72;99538.56;104564;1264;62654;-54
2023/02/02 05:41:00;;;;;;;6.30;2.80;;;;;;;3.28;66.84;99541.52;104679;1267;65032;-54
2023/02/02 05:43:27;;;;;;;6.70;2.60;;;;;;;3.22;66.89;99538.58;104566;1268;59675;-57
2023/02/02 05:45:55;;;;;;;12.10;5.60;;;;;;;3.16;66.99;99542.77;104823;1264;59675;-52
2023/02/02 05:48:22;;;;;;;7.10;2.30;;;;;;;3.16;66.94;99549.01;104589;1267;65363;-52
2023/02/02 05:50:59;;;;;;;7.90;2.90;;;;;;;3.22;66.93;99547.62;104682;1264;62910;-51
2023/02/02 06:08:28;;;;;;;12.70;6.40;;;;;;;3.79;66.01;99556.77;102003;1295;605422;-55
2023/02/02 06:10:58;;;;;;;7.90;3.80;;;;;;;4.19;64.88;99558.66;104392;1266;83695;-56
2023/02/02 06:13:26;;;;;;;9.70;6.30;;;;;;;4.14;64.86;99559.53;108516;1263;57470;-56
2023/02/02 06:15:57;;;;;;;7.70;3.10;;;;;;;4.05;64.80;99564.45;108531;1266;63608;-56
2023/02/02 06:18:25;;;;;;;11.50;3.80;;;;;;;3.94;64.74;99566.21;108518;1265;61672;-55
2023/02/02 06:20:59;;;;;;;6.30;2.80;;;;;;;3.83;64.94;99570.09;108522;1265;73958;-55
2023/02/02 06:23:28;;;;;;;13.30;6.80;;;;;;;3.75;64.97;99567.30;108542;1265;57199;-56
2023/02/02 06:25:57;;;;;;;17.60;8.50;;;;;;;3.72;65.15;99574.04;105415;1266;59344;-55
2023/02/02 06:28:25;;;;;;;13.50;7.20;;;;;;;3.78;65.15;99572.10;104930;1268;64586;-55
2023/02/02 06:30:54;;;;;;;8.50;3.10;;;;;;;3.83;65.05;99573.70;104808;1268;62395;-55
2023/02/02 06:33:22;;;;;;;16.70;8.30;;;;;;;3.86;64.99;99574.55;104805;1267;65019;-56
2023/02/02 06:35:51;;;;;;;13.80;7.70;;;;;;;3.83;65.00;99575.79;104810;1270;59700;-56
2023/02/02 06:38:19;;;;;;;8.80;3.00;;;;;;;3.79;65.24;99576.56;104983;1267;59635;-55
2023/02/02 06:40:48;;;;;;;10.90;4.10;;;;;;;3.77;65.19;99574.66;104700;1268;65381;-55
2023/02/02 06:43:18;;;;;;;7.90;2.80;;;;;;;3.71;65.12;99578.63;104828;1266;62493;-55
2023/02/02 06:45:46;;;;;;;10.30;3.80;;;;;;;3.64;65.23;99579.97;104798;1266;65201;-54
2023/02/02 06:48:15;;;;;;;9.90;3.30;;;;;;;3.59;65.34;99585.16;104869;1266;59682;-55
2023/02/02 06:50:43;;;;;;;7.40;3.00;;;;;;;3.53;65.51;99586.55;104727;1265;59747;-57
2023/02/02 06:53:12;;;;;;;9.40;3.50;;;;;;;3.49;65.48;99581.96;104660;1263;65043;-52
2023/02/02 06:55:42;;;;;;;10.50;3.60;;;;;;;3.52;65.43;99578.62;104647;1268;61491;-55
2023/02/02 06:58:10;;;;;;;10.70;7.00;;;;;;;3.60;65.34;99585.25;104456;1265;65229;-55
2023/02/02 07:00:38;;;;;;;7.90;2.50;;;;;;;3.65;65.27;99585.14;105321;1266;59785;-55
2023/02/02 07:03:07;;;;;;;5.90;3.10;;;;;;;3.66;65.28;99587.98;104576;1266;61341;-55
2023/02/02 07:05:35;;;;;;;14.30;8.40;;;;;;;3.66;65.28;99583.33;104944;1257;73992;-55
2023/02/02 07:08:04;;;;;;;6.10;2.30;;;;;;;3.67;65.21;99586.58;106021;1257;62706;-56
2023/02/02 07:10:32;;;;;;;8.80;3.20;;;;;;;3.67;65.17;99589.30;105010;1257;65026;-56
2023/02/02 07:13:20;;;;;;;8.90;3.50;;;;;;;3.64;65.09;99588.67;105119;1257;59635;-55
2023/02/02 07:15:50;;;;;;;6.50;2.50;;;;;;;3.60;65.08;99590.13;105300;1258;59773;-55
2023/02/02 07:18:19;;;;;;;12.50;7.80;;;;;;;3.57;65.14;99591.54;105109;1257;65140;-55
2023/02/02 07:20:47;;;;;;;7.30;2.80;;;;;;;3.58;65.12;99592.02;105095;1258;71423;-55
2023/02/02 07:23:16;;;;;;;12.20;7.40;;;;;;;3.65;64.96;99586.11;105122;1259;73643;-55
2023/02/02 07:25:44;;;;;;;6.50;2.10;;;;;;;3.73;65.08;99581.95;104998;1257;62277;-54
2023/02/02 07:28:13;;;;;;;13.90;4.00;;;;;;;3.79;65.05;99585.39;105016;1260;59715;-55
2023/02/02 07:30:41;;;;;;;6.40;2.90;;;;;;;3.83;64.98;99592.80;108792;1257;73821;-54
2023/02/02 07:33:09;;;;;;;9.00;3.50;;;;;;;3.87;65.02;99588.92;107400;1259;71253;-56
2023/02/02 07:35:38;;;;;;;11.60;3.40;;;;;;;3.92;64.86;99594.48;104955;1258;66172;-56
2023/02/02 07:38:06;;;;;;;10.30;4.00;;;;;;;3.95;64.84;99590.70;104938;1257;60379;-54
2023/02/02 07:40:35;;;;;;;5.30;2.50;;;;;;;3.99;64.66;99599.05;105290;1257;61284;-50
2023/02/02 07:43:03;;;;;;;11.60;3.80;;;;;;;4.01;64.42;99605.16;105064;1260;73872;-53
2023/02/02 07:45:36;;;;;;;12.20;6.60;;;;;;;3.98;64.28;99605.73;105202;1260;62361;-53
2023/02/02 07:48:05;;;;;;;6.90;2.60;;;;;;;3.95;64.36;99607.52;105165;1260;73420;-52
2023/02/02 07:50:34;;;;;;;11.30;3.40;;;;;;;4.01;64.31;99609.89;105018;1257;59715;-53
2023/02/02 07:53:02;;;;;;;8.60;2.60;;;;;;;4.09;64.13;99614.00;105030;1259;59938;-53
2023/02/02 07:55:31;;;;;;;6.20;2.10;;;;;;;4.16;64.21;99612.53;105114;1257;73890;-53
2023/02/02 07:58:00;;;;;;;10.50;6.30;;;;;;;4.21;64.11;99612.03;105161;1258;62337;-54
2023/02/02 08:00:29;;;;;;;6.50;3.20;;;;;;;4.23;64.28;99615.55;105303;1257;73727;-52
2023/02/02 08:02:57;;;;;;;10.70;7.10;;;;;;;4.26;64.16;99610.83;104847;1257;60298;-51
2023/02/02 08:05:27;;;;;;;10.10;6.30;;;;;;;4.27;64.08;99612.98;106239;1257;61009;-50
2023/02/02 08:07:55;;;;;;;8.60;3.80;;;;;;;4.29;63.89;99619.31;105157;1257;72565;-50
2023/02/02 08:10:23;;;;;;;12.70;6.30;;;;;;;4.27;63.89;99617.85;105163;1257;69918;-51
2023/02/02 08:12:52;;;;;;;6.00;2.10;;;;;;;4.28;64.11;99619.02;104856;1260;73807;-52
2023/02/02 08:15:21;;;;;;;8.50;4.20;;;;;;;4.33;64.01;99624.46;108856;1257;60390;-52
2023/02/02 08:17:49;;;;;;;7.70;2.90;;;;;;;4.38;64.15;99622.75;107227;1257;60235;-51
2023/02/02 08:20:18;;;;;;;7.30;2.60;;;;;;;4.47;63.90;99628.39;107085;1258;74117;-52
2023/02/02 08:22:46;;;;;;;6.40;2.70;;;;;;;4.56;63.57;99622.36;105315;1257;62616;-53
2023/02/02 08:25:15;;;;;;;6.80;2.80;;;;;;;4.63;63.32;99623.14;105415;1258;65079;-53
2023/02/02 08:27:43;;;;;;;11.30;6.70;;;;;;;4.65;63.15;99625.06;105896;1257;61314;-51
2023/02/02 08:30:12;;;;;;;13.30;7.30;;;;;;;4.63;62.92;99627.77;105158;1258;61311;-53
2023/02/02 08:32:41;;;;;;;7.60;3.30;;;;;;;4.57;62.72;99631.37;105275;1259;74028;-53
2023/02/02 08:35:10;;;;;;;12.20;6.60;;;;;;;4.53;63.16;99625.71;105264;1258;70084;-53
2023/02/02 08:37:38;;;;;;;7.30;2.50;;;;;;;4.54;63.14;99623.59;105242;1262;73505;-54
2023/02/02 08:40:08;;;;;;;7.50;3.00;;;;;;;4.54;63.18;99620.11;105098;1257;60270;-51
2023/02/02 08:42:36;;;;;;;10.60;7.50;;;;;;;4.55;63.21;99620.88;105180;1260;61588;-51
2023/02/02 08:45:06;;;;;;;9.90;3.70;;;;;;;4.58;63.01;99624.20;105344;1260;74452;-54
2023/02/02 08:47:54;;;;;;;6.90;2.30;;;;;;;4.61;62.81;99623.40;105076;1257;62389;-55
2023/02/02 08:50:38;;;;;;;11.50;7.90;;;;;;;4.67;62.95;99620.77;105227;1257;65035;-53
2023/02/02 08:53:07;;;;;;;11.00;7.70;;;;;;;4.73;62.78;99619.14;105384;1257;61376;-54
2023/02/02 08:55:35;;;;;;;7.50;3.00;;;;;;;4.75;62.72;99618.99;105324;1257;61207;-51
2023/02/02 08:58:04;;;;;;;11.00;6.50;;;;;;;4.75;62.47;99616.22;105229;1260;74078;-54
2023/02/02 09:00:33;;;;;;;6.60;3.00;;;;;;;4.73;62.45;99622.11;105326;1260;70007;-52
2023/02/02 09:03:01;;;;;;;9.00;3.50;;;;;;;4.69;62.53;99622.95;105286;1258;72666;-51
2023/02/02 09:05:30;;;;;;;9.00;4.10;;;;;;;4.64;62.47;99628.47;105295;1259;60265;-54
2023/02/02 09:07:58;;;;;;;9.80;7.50;;;;;;;4.58;62.70;99623.82;105133;1257;61801;-53
2023/02/02 09:10:27;;;;;;;8.20;3.30;;;;;;;4.58;63.00;99626.05;105556;1257;73823;-53
2023/02/02 09:12:55;;;;;;;11.80;8.10;;;;;;;4.62;63.12;99622.66;105221;1260;71822;-53
2023/02/02 09:15:24;;;;;;;6.00;2.30;;;;;;;4.64;63.20;99621.48;105277;1258;73185;-53
2023/02/02 09:17:53;;;;;;;6.70;2.40;;;;;;;4.75;63.07;99618.86;105228;1257;61050;-52
2023/02/02 09:20:21;;;;;;;10.80;6.50;;;;;;;4.90;62.69;99619.41;105183;1258;62210;-53
2023/02/02 09:22:50;;;;;;;11.70;7.20;;;;;;;4.97;62.68;99611.06;105239;1260;74165;-55
2023/02/02 09:25:19;;;;;;;7.50;2.60;;;;;;;5.03;62.64;99615.36;105132;1258;71278;-54
2023/02/02 09:27:47;;;;;;;9.30;4.00;;;;;;;5.07;62.36;99617.16;105283;1257;74150;-52
2023/02/02 09:30:16;;;;;;;12.10;7.00;;;;;;;5.09;62.28;99614.83;105103;1260;60761;-55
2023/02/02 09:32:47;;;;;;;10.50;6.60;;;;;;;5.11;62.45;99616.26;105338;1257;59731;-54
2023/02/02 09:35:16;;;;;;;10.20;6.80;;;;;;;5.15;62.40;99614.92;105308;1260;65375;-54
2023/02/02 09:37:44;;;;;;;12.70;8.50;;;;;;;5.15;62.21;99618.41;105240;1260;62768;-54
2023/02/02 09:40:16;;;;;;;16.80;8.70;;;;;;;5.12;62.32;99618.58;105354;1258;64837;-52
2023/02/02 09:43:09;;;;;;;12.10;7.60;;;;;;;5.06;62.23;99620.55;105140;1259;59707;-52
2023/02/02 09:45:46;;;;;;;7.00;3.10;;;;;;;5.03;62.28;99621.63;105330;1258;59644;-53
2023/02/02 09:48:53;;;;;;;6.20;3.00;;;;;;;5.03;62.31;99622.31;104981;1262;65475;-54
2023/02/02 10:04:45;;;;;;;8.30;5.20;;;;;;;5.09;63.90;99620.69;103423;1283;604589;-55
2023/02/02 10:07:17;;;;;;;8.00;5.50;;;;;;;5.43;63.87;99622.17;104693;1271;111015;-55
2023/02/02 10:09:49;;;;;;;8.80;6.10;;;;;;;5.38;64.09;99622.86;104783;1267;59362;-54
2023/02/02 10:12:47;;;;;;;9.10;5.90;;;;;;;5.29;64.34;99620.19;105056;1264;64620;-54
2023/02/02 10:15:35;;;;;;;6.10;2.10;;;;;;;5.19;64.64;99621.59;104736;1269;62768;-54
2023/02/02 10:18:28;;;;;;;6.80;3.00;;;;;;;5.16;64.88;99621.45;104821;1268;65002;-54
2023/02/02 10:20:59;;;;;;;9.00;6.10;;;;;;;5.18;65.23;99624.79;104671;1269;61260;-53
2023/02/02 10:23:34;;;;;;;6.30;2.50;;;;;;;5.19;65.10;99629.95;104707;1270;59717;-53
2023/02/02 10:26:16;;;;;;;6.30;2.70;;;;;;;5.08;64.99;99628.95;104944;1264;63321;-53
2023/02/02 10:29:01;;;;;;;8.10;3.60;;;;;;;4.97;65.48;99628.46;104839;1266;63105;-53
2023/02/02 10:31:49;;;;;;;10.80;7.10;;;;;;;4.94;65.74;99637.52;104798;1269;63998;-53
2023/02/02 10:34:20;;;;;;;13.10;4.00;;;;;;;4.88;65.69;99637.96;104737;1269;59644;-53
2023/02/02 10:37:14;;;;;;;11.50;3.50;;;;;;;4.80;65.93;99640.04;104897;1267;59701;-54
2023/02/02 10:40:01;;;;;;;9.50;7.40;;;;;;;4.71;66.06;99638.95;104766;1267;64327;-54
2023/02/02 10:43:44;;;;;;;10.90;7.50;;;;;;;4.63;66.21;99637.75;104949;1269;62455;-54
2023/02/02 10:45:34;;;;;;;9.40;6.50;;;;;;;4.65;66.38;99637.04;105178;1267;64901;-54
2023/02/02 10:48:05;;;;;;;10.90;8.10;;;;;;;4.70;66.44;99637.08;104849;1267;59675;-56
2023/02/02 10:50:33;;;;;;;6.90;2.90;;;;;;;4.72;66.13;99629.86;104764;1271;59781;-57
2023/02/02 10:53:01;;;;;;;10.30;6.80;;;;;;;4.70;66.08;99625.42;104750;1267;64178;-54
2023/02/02 10:55:31;;;;;;;10.50;3.30;;;;;;;4.70;66.09;99623.74;104889;1266;62690;-54
2023/02/02 10:58:12;;;;;;;11.40;7.70;;;;;;;4.70;66.03;99621.45;104809;1269;73459;-54
2023/02/02 11:00:54;;;;;;;9.80;7.30;;;;;;;4.71;66.13;99625.05;104846;1267;60785;-54
2023/02/02 11:03:27;;;;;;;10.80;7.20;;;;;;;4.76;66.50;99624.02;104978;1269;60457;-55
2023/02/02 11:08:45;;;;;;;8.50;3.40;;;;;;;5.10;66.36;99622.01;104925;1269;71184;-54
2023/02/02 11:11:27;;;;;;;6.00;2.30;;;;;;;5.23;65.96;99625.09;104879;1267;72661;-57
2023/02/02 11:14:08;;;;;;;7.30;3.10;;;;;;;5.28;65.77;99616.77;104593;1267;59653;-54
2023/02/02 11:16:40;;;;;;;9.80;7.40;;;;;;;5.31;65.64;99617.23;104803;1269;61050;-55
2023/02/02 11:19:18;;;;;;;10.70;8.00;;;;;;;5.32;65.35;99623.95;106964;1267;65120;-54
2023/02/02 11:21:52;;;;;;;7.10;2.80;;;;;;;5.31;65.07;99625.43;106440;1267;62549;-54
2023/02/02 11:24:28;;;;;;;8.50;3.60;;;;;;;5.29;64.86;99630.45;104859;1269;65041;-53
2023/02/02 11:27:00;;;;;;;11.80;8.20;;;;;;;5.23;64.25;99624.62;104860;1270;59770;-54
2023/02/02 11:29:31;;;;;;;7.60;2.90;;;;;;;5.19;63.78;99624.02;104811;1269;59674;-55
2023/02/02 11:32:19;;;;;;;5.40;2.90;;;;;;;5.23;63.21;99624.81;105106;1265;64272;-54
2023/02/02 11:34:48;;;;;;;7.70;2.80;;;;;;;5.29;63.13;99618.95;104693;1269;62425;-55
2023/02/02 11:37:20;;;;;;;9.40;6.50;;;;;;;5.37;63.18;99618.90;104878;1269;65008;-55
2023/02/02 11:39:48;;;;;;;9.80;4.30;;;;;;;5.45;63.12;99621.87;105133;1267;59593;-54
2023/02/02 11:42:21;;;;;;;10.70;7.60;;;;;;;5.53;62.90;99620.40;105008;1271;61319;-54
2023/02/02 11:44:53;;;;;;;12.80;8.30;;;;;;;5.58;62.64;99623.48;105023;1264;65543;-54
2023/02/02 11:47:29;;;;;;;11.80;7.70;;;;;;;5.63;62.57;99623.39;105414;1263;63515;-55
2023/02/02 11:49:59;;;;;;;8.40;3.80;;;;;;;5.65;61.96;99616.44;105469;1262;64693;-54
2023/02/02 11:52:30;;;;;;;7.80;3.70;;;;;;;5.66;61.36;99613.23;105466;1262;60528;-54
2023/02/02 11:55:01;;;;;;;11.80;6.60;;;;;;;5.71;61.58;99610.57;105491;1263;61577;-55
2023/02/02 11:57:30;;;;;;;7.70;2.90;;;;;;;5.87;61.45;99606.71;105469;1258;72985;-54
2023/02/02 12:00:10;;;;;;;9.30;4.20;;;;;;;5.98;60.84;99610.42;105342;1264;71294;-55
2023/02/02 12:02:45;;;;;;;7.30;3.30;;;;;;;6.08;60.76;99614.34;105192;1261;73669;-53
2023/02/02 12:05:19;;;;;;;7.10;2.90;;;;;;;6.25;60.30;99612.65;105222;1264;62193;-52
2023/02/02 12:07:48;;;;;;;9.80;5.60;;;;;;;6.51;59.78;99612.41;108053;1262;61097;-53
2023/02/02 12:10:37;;;;;;;9.00;5.30;;;;;;;6.76;58.86;99615.89;105894;1259;72800;-55
2023/02/02 12:13:12;;;;;;;8.50;5.80;;;;;;;6.87;58.34;99610.55;105267;1263;71330;-55
2023/02/02 12:16:05;;;;;;;9.70;5.90;;;;;;;6.90;58.11;99612.43;105272;1263;64666;-55
2023/02/02 12:18:54;;;;;;;9.10;5.80;;;;;;;6.86;57.88;99617.09;105384;1261;59682;-55
2023/02/02 12:21:26;;;;;;;8.90;6.40;;;;;;;6.79;57.77;99614.69;105223;1258;59682;-54
2023/02/02 12:24:10;;;;;;;11.20;6.80;;;;;;;6.69;57.96;99615.58;105310;1263;64737;-55
2023/02/02 12:26:39;;;;;;;10.00;7.20;;;;;;;6.57;58.30;99618.63;105411;1262;62846;-54
2023/02/02 12:29:36;;;;;;;10.10;6.70;;;;;;;6.44;58.62;99617.31;105241;1263;64104;-54
2023/02/02 12:32:33;;;;;;;6.50;2.80;;;;;;;6.32;58.49;99624.98;105196;1263;59586;-56
2023/02/02 12:35:20;;;;;;;7.80;3.80;;;;;;;6.17;58.88;99630.77;105270;1260;59688;-55
2023/02/02 12:52:10;;;;;;;10.50;6.70;;;;;;;6.25;58.67;99629.82;102900;1287;605078;-52
2023/02/02 12:54:52;;;;;;;11.10;6.50;;;;;;;6.46;57.89;99635.80;104651;1268;88013;-51
2023/02/02 12:57:27;;;;;;;11.40;7.70;;;;;;;6.31;58.22;99635.48;104901;1267;59626;-54
2023/02/02 13:00:23;;;;;;;11.50;6.80;;;;;;;6.19;58.63;99636.05;104802;1267;64007;-52
2023/02/02 13:03:06;;;;;;;9.30;6.40;;;;;;;6.09;58.88;99638.88;105040;1264;62936;-51
2023/02/02 13:05:54;;;;;;;9.60;6.90;;;;;;;6.00;58.96;99639.35;105237;1258;64942;-52
2023/02/02 13:08:25;;;;;;;10.90;7.40;;;;;;;5.91;59.16;99642.59;105395;1257;59292;-51
2023/02/02 13:10:54;;;;;;;9.70;2.80;;;;;;;5.85;59.52;99644.09;105242;1258;59437;-54
2023/02/02 13:13:24;;;;;;;9.50;6.60;;;;;;;5.88;59.45;99639.98;105406;1261;64423;-51
2023/02/02 13:15:58;;;;;;;9.50;6.60;;;;;;;5.96;59.54;99641.33;105189;1257;62696;-52
2023/02/02 13:18:27;;;;;;;7.40;3.20;;;;;;;6.04;59.65;99644.66;105409;1259;65089;-53
2023/02/02 13:20:57;;;;;;;7.40;3.20;;;;;;;6.05;59.68;99640.39;105573;1260;59535;-53
2023/02/02 13:23:33;;;;;;;14.60;7.30;;;;;;;6.05;59.88;99639.84;105386;1257;59766;-52
2023/02/02 13:26:05;;;;;;;10.50;6.60;;;;;;;6.04;59.58;99640.63;105202;1258;64114;-51
2023/02/02 13:28:51;;;;;;;8.70;3.00;;;;;;;5.98;59.53;99644.14;105049;1258;61610;-51
2023/02/02 13:31:48;;;;;;;8.80;3.40;;;;;;;5.94;59.46;99642.85;105051;1257;64740;-51
2023/02/02 13:34:23;;;;;;;10.70;6.90;;;;;;;6.01;59.51;99645.71;104886;1258;60158;-51
2023/02/02 13:36:56;;;;;;;9.30;4.10;;;;;;;6.18;59.41;99646.75;105546;1261;60222;-51
2023/02/02 13:39:36;;;;;;;12.10;8.10;;;;;;;6.29;59.38;99645.23;105211;1257;72791;-51
2023/02/02 13:42:04;;;;;;;12.00;8.50;;;;;;;6.37;58.97;99647.96;105426;1258;71146;-50
2023/02/02 13:44:34;;;;;;;10.70;4.00;;;;;;;6.37;58.64;99651.09;105386;1257;73752;-51
2023/02/02 13:47:10;;;;;;;18.90;13.70;;;;;;;6.32;58.43;99652.15;105453;1257;59743;-50
2023/02/02 13:49:40;;;;;;;13.90;5.80;;;;;;;6.21;58.42;99657.64;105308;1260;59578;-50
2023/02/02 13:52:35;;;;;;;13.70;10.40;;;;;;;6.08;58.71;99658.78;105210;1259;65553;-51
2023/02/02 13:55:40;;;;;;;9.80;4.20;;;;;;;5.98;59.12;99655.70;105278;1257;62296;-51
2023/02/02 13:58:26;;;;;;;30.50;20.00;;;;;;;5.88;59.60;99657.77;105370;1257;65290;-52
2023/02/02 14:00:55;;;;;;;17.60;7.60;;;;;;;5.83;59.97;99658.30;105249;1259;60077;-51
2023/02/02 14:03:25;;;;;;;11.60;5.20;;;;;;;5.84;60.04;99659.98;105187;1258;59692;-52
2023/02/02 14:06:04;;;;;;;18.20;8.10;;;;;;;5.86;60.22;99659.85;105199;1260;65229;-51
2023/02/02 14:08:31;;;;;;;29.50;20.80;;;;;;;5.88;60.26;99660.73;105021;1259;61623;-52
2023/02/02 14:10:59;;;;;;;23.40;15.10;;;;;;;5.87;60.47;99655.39;105450;1259;65007;-52
2023/02/02 14:16:32;;;;;;;37.70;24.70;;;;;;;5.76;60.52;99664.73;105157;1257;61390;-53
2023/02/02 14:19:02;;;;;;;36.40;24.60;;;;;;;5.70;60.59;99662.52;105164;1261;65675;-53
2023/02/02 14:21:32;;;;;;;34.50;22.90;;;;;;;5.67;60.69;99664.83;105189;1258;61737;-53
2023/02/02 14:24:26;;;;;;;20.70;9.90;;;;;;;5.63;60.78;99666.19;105251;1258;65227;-53
2023/02/02 14:27:14;;;;;;;21.70;15.70;;;;;;;5.55;60.79;99666.34;105403;1257;59631;-53
2023/02/02 14:29:44;;;;;;;21.50;15.00;;;;;;;5.48;60.94;99670.70;105451;1257;59673;-53
2023/02/02 14:32:22;;;;;;;18.40;13.70;;;;;;;5.42;61.04;99669.54;105525;1259;65251;-50
2023/02/02 14:34:59;;;;;;;13.20;6.80;;;;;;;5.34;61.11;99664.52;105263;1257;62052;-52
2023/02/02 14:37:33;;;;;;;16.60;12.60;;;;;;;5.26;61.29;99667.86;105416;1257;64554;-51
2023/02/02 14:40:06;;;;;;;17.70;12.00;;;;;;;5.18;61.40;99668.92;105333;1258;59647;-52
2023/02/02 14:46:23;;;;;;;17.50;13.10;;;;;;;5.24;61.44;99672.00;105014;1259;65007;-53
2023/02/02 14:48:53;;;;;;;19.60;14.60;;;;;;;5.28;61.49;99671.92;105537;1257;64138;-54
2023/02/02 14:51:25;;;;;;;19.60;14.30;;;;;;;5.29;61.65;99675.50;105004;1258;64847;-52
2023/02/02 14:53:53;;;;;;;11.60;5.30;;;;;;;5.29;61.58;99678.98;105032;1257;59768;-52
2023/02/02 14:56:48;;;;;;;19.90;13.90;;;;;;;5.28;61.62;99682.16;104994;1259;60523;-52
2023/02/02 14:59:17;;;;;;;12.50;5.90;;;;;;;5.28;61.59;99689.13;105497;1260;65523;-52
2023/02/02 15:01:52;;;;;;;11.60;5.90;;;;;;;5.24;61.54;99689.92;105184;1258;62418;-51
2023/02/02 15:04:20;;;;;;;14.20;6.10;;;;;;;5.18;61.56;99690.66;105054;1260;65120;-48
2023/02/02 15:06:48;;;;;;;17.20;13.00;;;;;;;5.15;61.80;99693.33;105276;1259;59664;-50
2023/02/02 15:09:18;;;;;;;18.90;14.30;;;;;;;5.11;61.90;99695.15;105222;1257;59639;-51
2023/02/02 15:11:57;;;;;;;20.80;15.80;;;;;;;5.07;62.03;99695.77;104887;1261;65352;-50
2023/02/02 15:15:09;;;;;;;13.90;7.00;;;;;;;5.02;62.16;99699.77;105328;1257;62795;-50
2023/02/02 15:17:38;;;;;;;14.30;6.90;;;;;;;4.95;62.38;99704.24;104942;1264;63956;-51